sensor_id;sensor_type;location;lat;lon;timestamp;P1;durP1;ratioP1;P2;durP2;ratioP2
21352;SDS011;10834;52.268;6.770;2023-07-16T00:01:13;8.45;;;4.40;;
21352;SDS011;10834;52.268;6.770;2023-07-16T00:03:59;7.85;;;4.53;;
21352;SDS011;10834;52.268;6.770;2023-07-16T00:06:45;8.15;;;4.25;;
21352;SDS011;10834;52.268;6.770;2023-07-16T00:09:31;5.47;;;4.28;;
21352;SDS011;10834;52.268;6.770;2023-07-16T00:12:17;6.82;;;5.15;;
21352;SDS011;10834;52.268;6.770;2023-07-16T00:15:03;5.38;;;4.80;;
21352;SDS011;10834;52.268;6.770;2023-07-16T00:17:51;8.65;;;4.85;;
21352;SDS011;10834;52.268;6.770;2023-07-16T00:20:38;10.45;;;5.15;;
21352;SDS011;10834;52.268;6.770;2023-07-16T00:23:24;8.30;;;5.10;;
21352;SDS011;10834;52.268;6.770;2023-07-16T00:26:10;8.25;;;5.38;;
21352;SDS011;10834;52.268;6.770;2023-07-16T00:28:57;8.77;;;5.63;;
21352;SDS011;10834;52.268;6.770;2023-07-16T00:31:43;9.27;;;5.20;;
21352;SDS011;10834;52.268;6.770;2023-07-16T00:34:30;7.53;;;4.88;;
21352;SDS011;10834;52.268;6.770;2023-07-16T00:37:16;9.10;;;5.20;;
21352;SDS011;10834;52.268;6.770;2023-07-16T00:40:02;6.60;;;5.47;;
21352;SDS011;10834;52.268;6.770;2023-07-16T00:42:49;6.03;;;4.97;;
21352;SDS011;10834;52.268;6.770;2023-07-16T00:45:35;8.98;;;5.55;;
21352;SDS011;10834;52.268;6.770;2023-07-16T00:48:23;5.95;;;4.60;;
21352;SDS011;10834;52.268;6.770;2023-07-16T00:51:09;5.68;;;4.60;;
21352;SDS011;10834;52.268;6.770;2023-07-16T00:53:55;8.82;;;5.32;;
21352;SDS011;10834;52.268;6.770;2023-07-16T00:56:42;9.07;;;5.25;;
21352;SDS011;10834;52.268;6.770;2023-07-16T00:59:28;5.93;;;4.43;;
21352;SDS011;10834;52.268;6.770;2023-07-16T01:02:14;8.60;;;4.82;;
21352;SDS011;10834;52.268;6.770;2023-07-16T01:05:00;7.25;;;4.82;;
21352;SDS011;10834;52.268;6.770;2023-07-16T01:07:51;4.47;;;3.83;;
21352;SDS011;10834;52.268;6.770;2023-07-16T01:10:45;5.90;;;3.83;;
21352;SDS011;10834;52.268;6.770;2023-07-16T01:13:31;7.03;;;4.75;;
21352;SDS011;10834;52.268;6.770;2023-07-16T01:16:23;6.68;;;4.68;;
21352;SDS011;10834;52.268;6.770;2023-07-16T01:19:10;6.55;;;4.80;;
21352;SDS011;10834;52.268;6.770;2023-07-16T01:31:34;8.45;;;5.65;;
21352;SDS011;10834;52.268;6.770;2023-07-16T01:34:21;8.07;;;5.20;;
21352;SDS011;10834;52.268;6.770;2023-07-16T01:37:09;10.27;;;5.60;;
21352;SDS011;10834;52.268;6.770;2023-07-16T01:39:56;9.15;;;6.10;;
21352;SDS011;10834;52.268;6.770;2023-07-16T01:42:42;7.53;;;5.15;;
21352;SDS011;10834;52.268;6.770;2023-07-16T01:45:28;12.38;;;6.38;;
21352;SDS011;10834;52.268;6.770;2023-07-16T01:48:29;8.75;;;5.75;;
21352;SDS011;10834;52.268;6.770;2023-07-16T01:51:17;9.60;;;5.80;;
21352;SDS011;10834;52.268;6.770;2023-07-16T01:54:05;12.90;;;6.15;;
21352;SDS011;10834;52.268;6.770;2023-07-16T01:56:51;10.45;;;6.15;;
21352;SDS011;10834;52.268;6.770;2023-07-16T01:59:37;8.00;;;6.25;;
21352;SDS011;10834;52.268;6.770;2023-07-16T02:02:23;10.30;;;6.07;;
21352;SDS011;10834;52.268;6.770;2023-07-16T02:05:09;8.20;;;5.75;;
21352;SDS011;10834;52.268;6.770;2023-07-16T02:07:55;9.90;;;5.45;;
21352;SDS011;10834;52.268;6.770;2023-07-16T02:10:41;10.02;;;5.47;;
21352;SDS011;10834;52.268;6.770;2023-07-16T02:13:28;10.15;;;5.03;;
21352;SDS011;10834;52.268;6.770;2023-07-16T02:16:14;9.88;;;5.53;;
21352;SDS011;10834;52.268;6.770;2023-07-16T02:19:00;5.07;;;4.55;;
21352;SDS011;10834;52.268;6.770;2023-07-16T02:21:46;4.45;;;4.00;;
21352;SDS011;10834;52.268;6.770;2023-07-16T02:24:32;5.05;;;4.00;;
21352;SDS011;10834;52.268;6.770;2023-07-16T02:27:18;8.35;;;4.38;;
21352;SDS011;10834;52.268;6.770;2023-07-16T02:30:04;9.43;;;4.15;;
21352;SDS011;10834;52.268;6.770;2023-07-16T02:32:52;7.25;;;4.32;;
21352;SDS011;10834;52.268;6.770;2023-07-16T02:35:38;11.32;;;4.45;;
21352;SDS011;10834;52.268;6.770;2023-07-16T02:38:24;7.80;;;4.30;;
21352;SDS011;10834;52.268;6.770;2023-07-16T02:41:10;5.43;;;4.50;;
21352;SDS011;10834;52.268;6.770;2023-07-16T02:44:03;12.60;;;4.72;;
21352;SDS011;10834;52.268;6.770;2023-07-16T02:46:51;9.75;;;3.80;;
21352;SDS011;10834;52.268;6.770;2023-07-16T02:49:37;5.85;;;3.35;;
21352;SDS011;10834;52.268;6.770;2023-07-16T02:52:23;5.07;;;3.60;;
21352;SDS011;10834;52.268;6.770;2023-07-16T02:55:10;7.35;;;3.40;;
21352;SDS011;10834;52.268;6.770;2023-07-16T02:57:56;5.95;;;3.05;;
21352;SDS011;10834;52.268;6.770;2023-07-16T03:00:42;8.90;;;3.45;;
21352;SDS011;10834;52.268;6.770;2023-07-16T03:03:28;7.05;;;3.15;;
21352;SDS011;10834;52.268;6.770;2023-07-16T03:06:14;4.25;;;2.78;;
21352;SDS011;10834;52.268;6.770;2023-07-16T03:09:00;7.20;;;3.20;;
21352;SDS011;10834;52.268;6.770;2023-07-16T03:11:46;6.13;;;3.13;;
21352;SDS011;10834;52.268;6.770;2023-07-16T03:14:33;7.45;;;3.42;;
21352;SDS011;10834;52.268;6.770;2023-07-16T03:17:19;5.60;;;3.15;;
21352;SDS011;10834;52.268;6.770;2023-07-16T03:20:06;3.97;;;2.92;;
21352;SDS011;10834;52.268;6.770;2023-07-16T03:22:53;9.85;;;3.45;;
21352;SDS011;10834;52.268;6.770;2023-07-16T03:25:39;4.95;;;3.05;;
21352;SDS011;10834;52.268;6.770;2023-07-16T03:28:25;5.07;;;3.10;;
21352;SDS011;10834;52.268;6.770;2023-07-16T03:31:11;7.15;;;3.45;;
21352;SDS011;10834;52.268;6.770;2023-07-16T03:33:57;5.03;;;3.30;;
21352;SDS011;10834;52.268;6.770;2023-07-16T03:36:43;5.57;;;2.85;;
21352;SDS011;10834;52.268;6.770;2023-07-16T03:39:29;6.40;;;3.25;;
21352;SDS011;10834;52.268;6.770;2023-07-16T03:42:15;5.50;;;2.88;;
21352;SDS011;10834;52.268;6.770;2023-07-16T03:45:01;6.18;;;2.72;;
21352;SDS011;10834;52.268;6.770;2023-07-16T03:47:47;8.38;;;3.25;;
21352;SDS011;10834;52.268;6.770;2023-07-16T03:50:34;7.05;;;2.90;;
21352;SDS011;10834;52.268;6.770;2023-07-16T03:53:20;5.35;;;3.33;;
21352;SDS011;10834;52.268;6.770;2023-07-16T03:56:06;8.68;;;3.35;;
21352;SDS011;10834;52.268;6.770;2023-07-16T03:58:52;5.22;;;3.10;;
21352;SDS011;10834;52.268;6.770;2023-07-16T04:01:38;8.52;;;3.30;;
21352;SDS011;10834;52.268;6.770;2023-07-16T04:04:24;8.00;;;3.08;;
21352;SDS011;10834;52.268;6.770;2023-07-16T04:07:10;4.22;;;2.85;;
21352;SDS011;10834;52.268;6.770;2023-07-16T04:09:56;5.55;;;3.13;;
21352;SDS011;10834;52.268;6.770;2023-07-16T04:12:43;7.25;;;3.10;;
21352;SDS011;10834;52.268;6.770;2023-07-16T04:15:29;6.68;;;3.53;;
21352;SDS011;10834;52.268;6.770;2023-07-16T04:18:15;4.32;;;2.75;;
21352;SDS011;10834;52.268;6.770;2023-07-16T04:21:01;7.85;;;3.00;;
21352;SDS011;10834;52.268;6.770;2023-07-16T04:23:47;7.32;;;3.42;;
21352;SDS011;10834;52.268;6.770;2023-07-16T04:26:33;4.38;;;2.80;;
21352;SDS011;10834;52.268;6.770;2023-07-16T04:29:19;3.17;;;2.67;;
21352;SDS011;10834;52.268;6.770;2023-07-16T04:32:05;5.68;;;3.05;;
21352;SDS011;10834;52.268;6.770;2023-07-16T04:34:51;3.58;;;2.75;;
21352;SDS011;10834;52.268;6.770;2023-07-16T04:37:37;5.88;;;2.78;;
21352;SDS011;10834;52.268;6.770;2023-07-16T04:40:23;7.57;;;2.85;;
21352;SDS011;10834;52.268;6.770;2023-07-16T04:43:09;3.97;;;2.53;;
21352;SDS011;10834;52.268;6.770;2023-07-16T04:45:55;7.43;;;2.85;;
21352;SDS011;10834;52.268;6.770;2023-07-16T04:48:42;3.45;;;2.45;;
21352;SDS011;10834;52.268;6.770;2023-07-16T04:51:28;5.57;;;2.70;;
21352;SDS011;10834;52.268;6.770;2023-07-16T04:54:14;6.28;;;3.10;;
21352;SDS011;10834;52.268;6.770;2023-07-16T04:57:00;8.32;;;3.17;;
21352;SDS011;10834;52.268;6.770;2023-07-16T04:59:46;5.60;;;2.90;;
21352;SDS011;10834;52.268;6.770;2023-07-16T05:02:32;4.22;;;2.88;;
21352;SDS011;10834;52.268;6.770;2023-07-16T05:05:18;9.50;;;3.05;;
21352;SDS011;10834;52.268;6.770;2023-07-16T05:08:04;9.18;;;2.85;;
21352;SDS011;10834;52.268;6.770;2023-07-16T05:10:50;9.68;;;2.83;;
21352;SDS011;10834;52.268;6.770;2023-07-16T05:13:36;9.27;;;2.75;;
21352;SDS011;10834;52.268;6.770;2023-07-16T05:16:22;11.10;;;5.25;;
21352;SDS011;10834;52.268;6.770;2023-07-16T05:19:09;7.90;;;3.25;;
21352;SDS011;10834;52.268;6.770;2023-07-16T05:21:55;10.38;;;3.60;;
21352;SDS011;10834;52.268;6.770;2023-07-16T05:24:41;6.05;;;3.67;;
21352;SDS011;10834;52.268;6.770;2023-07-16T05:27:27;4.40;;;3.15;;
21352;SDS011;10834;52.268;6.770;2023-07-16T05:30:13;8.35;;;3.75;;
21352;SDS011;10834;52.268;6.770;2023-07-16T05:33:00;8.20;;;3.55;;
21352;SDS011;10834;52.268;6.770;2023-07-16T05:35:48;6.20;;;4.20;;
21352;SDS011;10834;52.268;6.770;2023-07-16T05:38:35;6.70;;;3.90;;
21352;SDS011;10834;52.268;6.770;2023-07-16T05:41:21;9.25;;;4.45;;
21352;SDS011;10834;52.268;6.770;2023-07-16T05:44:07;10.80;;;4.40;;
21352;SDS011;10834;52.268;6.770;2023-07-16T05:46:54;5.60;;;3.80;;
21352;SDS011;10834;52.268;6.770;2023-07-16T05:49:40;16.50;;;4.47;;
21352;SDS011;10834;52.268;6.770;2023-07-16T05:52:26;6.25;;;3.42;;
21352;SDS011;10834;52.268;6.770;2023-07-16T05:55:12;8.20;;;3.83;;
21352;SDS011;10834;52.268;6.770;2023-07-16T05:57:58;8.38;;;4.50;;
21352;SDS011;10834;52.268;6.770;2023-07-16T06:00:44;12.57;;;4.00;;
21352;SDS011;10834;52.268;6.770;2023-07-16T06:03:30;10.43;;;4.00;;
21352;SDS011;10834;52.268;6.770;2023-07-16T06:06:16;8.75;;;4.15;;
21352;SDS011;10834;52.268;6.770;2023-07-16T06:09:02;9.93;;;4.28;;
21352;SDS011;10834;52.268;6.770;2023-07-16T06:11:48;10.25;;;4.65;;
21352;SDS011;10834;52.268;6.770;2023-07-16T06:14:34;8.10;;;3.50;;
21352;SDS011;10834;52.268;6.770;2023-07-16T06:17:20;8.82;;;5.18;;
21352;SDS011;10834;52.268;6.770;2023-07-16T06:20:07;9.80;;;5.05;;
21352;SDS011;10834;52.268;6.770;2023-07-16T06:22:54;9.40;;;4.72;;
21352;SDS011;10834;52.268;6.770;2023-07-16T06:25:40;9.57;;;4.03;;
21352;SDS011;10834;52.268;6.770;2023-07-16T06:28:29;7.57;;;5.57;;
21352;SDS011;10834;52.268;6.770;2023-07-16T06:31:16;14.38;;;5.47;;
21352;SDS011;10834;52.268;6.770;2023-07-16T06:34:02;11.00;;;4.60;;
21352;SDS011;10834;52.268;6.770;2023-07-16T06:36:48;8.73;;;5.15;;
21352;SDS011;10834;52.268;6.770;2023-07-16T06:39:34;10.98;;;4.60;;
21352;SDS011;10834;52.268;6.770;2023-07-16T06:42:20;9.18;;;5.07;;
21352;SDS011;10834;52.268;6.770;2023-07-16T06:45:07;8.18;;;4.35;;
21352;SDS011;10834;52.268;6.770;2023-07-16T06:47:54;8.95;;;4.75;;
21352;SDS011;10834;52.268;6.770;2023-07-16T06:50:40;13.48;;;4.82;;
21352;SDS011;10834;52.268;6.770;2023-07-16T06:53:26;11.18;;;4.60;;
21352;SDS011;10834;52.268;6.770;2023-07-16T06:56:12;6.95;;;4.85;;
21352;SDS011;10834;52.268;6.770;2023-07-16T06:58:58;11.48;;;4.40;;
21352;SDS011;10834;52.268;6.770;2023-07-16T07:01:44;8.93;;;4.78;;
21352;SDS011;10834;52.268;6.770;2023-07-16T07:04:30;12.45;;;4.95;;
21352;SDS011;10834;52.268;6.770;2023-07-16T07:07:16;8.15;;;3.90;;
21352;SDS011;10834;52.268;6.770;2023-07-16T07:10:03;8.95;;;4.95;;
21352;SDS011;10834;52.268;6.770;2023-07-16T07:12:49;9.63;;;4.55;;
21352;SDS011;10834;52.268;6.770;2023-07-16T07:15:35;8.85;;;4.55;;
21352;SDS011;10834;52.268;6.770;2023-07-16T07:18:21;10.88;;;4.25;;
21352;SDS011;10834;52.268;6.770;2023-07-16T07:21:07;7.40;;;4.15;;
21352;SDS011;10834;52.268;6.770;2023-07-16T07:23:54;6.07;;;4.25;;
21352;SDS011;10834;52.268;6.770;2023-07-16T07:26:40;7.70;;;4.13;;
21352;SDS011;10834;52.268;6.770;2023-07-16T07:29:26;9.48;;;4.38;;
21352;SDS011;10834;52.268;6.770;2023-07-16T07:32:12;6.72;;;4.65;;
21352;SDS011;10834;52.268;6.770;2023-07-16T07:34:58;8.52;;;4.57;;
21352;SDS011;10834;52.268;6.770;2023-07-16T07:37:44;9.35;;;4.05;;
21352;SDS011;10834;52.268;6.770;2023-07-16T07:40:30;16.92;;;6.05;;
21352;SDS011;10834;52.268;6.770;2023-07-16T07:43:16;7.28;;;4.72;;
21352;SDS011;10834;52.268;6.770;2023-07-16T07:46:02;9.93;;;4.30;;
21352;SDS011;10834;52.268;6.770;2023-07-16T07:48:48;6.55;;;4.90;;
21352;SDS011;10834;52.268;6.770;2023-07-16T07:51:34;8.15;;;4.65;;
21352;SDS011;10834;52.268;6.770;2023-07-16T07:54:20;5.53;;;4.20;;
21352;SDS011;10834;52.268;6.770;2023-07-16T07:57:06;6.15;;;4.40;;
21352;SDS011;10834;52.268;6.770;2023-07-16T07:59:53;7.68;;;4.32;;
21352;SDS011;10834;52.268;6.770;2023-07-16T08:02:42;9.35;;;4.18;;
21352;SDS011;10834;52.268;6.770;2023-07-16T08:05:28;7.93;;;4.65;;
21352;SDS011;10834;52.268;6.770;2023-07-16T08:08:15;5.90;;;4.50;;
21352;SDS011;10834;52.268;6.770;2023-07-16T08:11:01;7.75;;;4.60;;
21352;SDS011;10834;52.268;6.770;2023-07-16T08:13:47;8.77;;;4.60;;
21352;SDS011;10834;52.268;6.770;2023-07-16T08:16:34;7.90;;;4.20;;
21352;SDS011;10834;52.268;6.770;2023-07-16T08:19:20;7.70;;;3.83;;
21352;SDS011;10834;52.268;6.770;2023-07-16T08:22:06;4.20;;;3.78;;
21352;SDS011;10834;52.268;6.770;2023-07-16T08:24:52;8.15;;;4.22;;
21352;SDS011;10834;52.268;6.770;2023-07-16T08:27:38;7.90;;;4.35;;
21352;SDS011;10834;52.268;6.770;2023-07-16T08:30:25;9.13;;;4.65;;
21352;SDS011;10834;52.268;6.770;2023-07-16T08:33:11;10.05;;;4.35;;
21352;SDS011;10834;52.268;6.770;2023-07-16T08:35:57;8.05;;;5.03;;
21352;SDS011;10834;52.268;6.770;2023-07-16T08:38:43;6.78;;;4.65;;
21352;SDS011;10834;52.268;6.770;2023-07-16T08:41:30;6.50;;;4.65;;
21352;SDS011;10834;52.268;6.770;2023-07-16T08:44:16;6.78;;;4.28;;
21352;SDS011;10834;52.268;6.770;2023-07-16T08:47:02;6.03;;;3.85;;
21352;SDS011;10834;52.268;6.770;2023-07-16T08:49:55;7.63;;;4.13;;
21352;SDS011;10834;52.268;6.770;2023-07-16T08:52:42;5.57;;;3.80;;
21352;SDS011;10834;52.268;6.770;2023-07-16T08:55:29;6.38;;;4.43;;
21352;SDS011;10834;52.268;6.770;2023-07-16T08:58:15;9.77;;;5.13;;
21352;SDS011;10834;52.268;6.770;2023-07-16T09:01:01;7.68;;;4.07;;
21352;SDS011;10834;52.268;6.770;2023-07-16T09:03:48;5.68;;;4.20;;
21352;SDS011;10834;52.268;6.770;2023-07-16T09:06:34;7.65;;;4.57;;
21352;SDS011;10834;52.268;6.770;2023-07-16T09:09:23;8.63;;;4.25;;
21352;SDS011;10834;52.268;6.770;2023-07-16T09:12:13;6.38;;;4.00;;
21352;SDS011;10834;52.268;6.770;2023-07-16T09:14:59;6.95;;;4.00;;
21352;SDS011;10834;52.268;6.770;2023-07-16T09:17:48;7.65;;;4.55;;
21352;SDS011;10834;52.268;6.770;2023-07-16T09:20:35;9.18;;;4.43;;
21352;SDS011;10834;52.268;6.770;2023-07-16T09:23:23;6.80;;;4.68;;
21352;SDS011;10834;52.268;6.770;2023-07-16T09:26:12;13.35;;;4.45;;
21352;SDS011;10834;52.268;6.770;2023-07-16T09:28:57;8.80;;;4.30;;
21352;SDS011;10834;52.268;6.770;2023-07-16T09:34:42;8.32;;;4.82;;
21352;SDS011;10834;52.268;6.770;2023-07-16T09:37:28;8.07;;;4.68;;
21352;SDS011;10834;52.268;6.770;2023-07-16T09:40:15;8.23;;;5.55;;
21352;SDS011;10834;52.268;6.770;2023-07-16T09:43:01;8.30;;;4.55;;
21352;SDS011;10834;52.268;6.770;2023-07-16T09:45:48;10.27;;;4.68;;
21352;SDS011;10834;52.268;6.770;2023-07-16T09:48:34;9.73;;;5.75;;
21352;SDS011;10834;52.268;6.770;2023-07-16T09:51:20;6.25;;;5.28;;
21352;SDS011;10834;52.268;6.770;2023-07-16T09:54:06;7.03;;;4.15;;
21352;SDS011;10834;52.268;6.770;2023-07-16T09:56:55;5.65;;;4.28;;
21352;SDS011;10834;52.268;6.770;2023-07-16T09:59:46;6.25;;;4.00;;
21352;SDS011;10834;52.268;6.770;2023-07-16T10:02:34;5.97;;;4.10;;
21352;SDS011;10834;52.268;6.770;2023-07-16T10:05:24;9.43;;;4.47;;
21352;SDS011;10834;52.268;6.770;2023-07-16T10:08:18;7.18;;;3.55;;
21352;SDS011;10834;52.268;6.770;2023-07-16T10:11:14;59.50;;;9.85;;
21352;SDS011;10834;52.268;6.770;2023-07-16T10:14:02;8.48;;;4.38;;
21352;SDS011;10834;52.268;6.770;2023-07-16T10:16:48;8.68;;;4.15;;
21352;SDS011;10834;52.268;6.770;2023-07-16T10:19:45;7.18;;;4.55;;
21352;SDS011;10834;52.268;6.770;2023-07-16T10:25:24;6.63;;;3.65;;
21352;SDS011;10834;52.268;6.770;2023-07-16T10:28:15;8.45;;;3.85;;
21352;SDS011;10834;52.268;6.770;2023-07-16T10:31:01;6.47;;;4.28;;
21352;SDS011;10834;52.268;6.770;2023-07-16T10:34:03;4.57;;;4.05;;
21352;SDS011;10834;52.268;6.770;2023-07-16T10:36:50;8.13;;;4.15;;
21352;SDS011;10834;52.268;6.770;2023-07-16T10:39:44;7.50;;;4.13;;
21352;SDS011;10834;52.268;6.770;2023-07-16T10:42:37;7.22;;;4.18;;
21352;SDS011;10834;52.268;6.770;2023-07-16T10:45:25;7.90;;;4.43;;
21352;SDS011;10834;52.268;6.770;2023-07-16T10:48:13;5.50;;;3.90;;
21352;SDS011;10834;52.268;6.770;2023-07-16T10:51:00;9.60;;;4.03;;
21352;SDS011;10834;52.268;6.770;2023-07-16T10:53:46;9.45;;;5.22;;
21352;SDS011;10834;52.268;6.770;2023-07-16T10:56:35;6.05;;;3.55;;
21352;SDS011;10834;52.268;6.770;2023-07-16T10:59:24;7.00;;;4.57;;
21352;SDS011;10834;52.268;6.770;2023-07-16T11:02:11;7.03;;;4.15;;
21352;SDS011;10834;52.268;6.770;2023-07-16T11:04:58;6.65;;;3.95;;
21352;SDS011;10834;52.268;6.770;2023-07-16T11:07:48;8.65;;;4.47;;
21352;SDS011;10834;52.268;6.770;2023-07-16T11:10:34;8.52;;;4.18;;
21352;SDS011;10834;52.268;6.770;2023-07-16T11:13:24;5.55;;;3.85;;
21352;SDS011;10834;52.268;6.770;2023-07-16T11:16:15;4.95;;;3.63;;
21352;SDS011;10834;52.268;6.770;2023-07-16T11:19:04;7.95;;;3.92;;
21352;SDS011;10834;52.268;6.770;2023-07-16T11:21:51;7.22;;;4.00;;
21352;SDS011;10834;52.268;6.770;2023-07-16T11:24:42;7.80;;;4.35;;
21352;SDS011;10834;52.268;6.770;2023-07-16T11:27:32;7.85;;;3.85;;
21352;SDS011;10834;52.268;6.770;2023-07-16T11:30:21;8.48;;;4.28;;
21352;SDS011;10834;52.268;6.770;2023-07-16T11:33:11;8.73;;;4.30;;
21352;SDS011;10834;52.268;6.770;2023-07-16T11:35:58;5.20;;;3.67;;
21352;SDS011;10834;52.268;6.770;2023-07-16T11:38:44;8.50;;;4.20;;
21352;SDS011;10834;52.268;6.770;2023-07-16T11:41:30;5.03;;;3.75;;
21352;SDS011;10834;52.268;6.770;2023-07-16T11:44:18;6.05;;;3.70;;
21352;SDS011;10834;52.268;6.770;2023-07-16T11:47:05;4.60;;;3.63;;
21352;SDS011;10834;52.268;6.770;2023-07-16T11:49:51;7.43;;;3.72;;
21352;SDS011;10834;52.268;6.770;2023-07-16T11:52:38;6.38;;;3.33;;
21352;SDS011;10834;52.268;6.770;2023-07-16T11:55:24;7.55;;;3.67;;
21352;SDS011;10834;52.268;6.770;2023-07-16T11:58:11;5.22;;;3.25;;
21352;SDS011;10834;52.268;6.770;2023-07-16T12:00:57;5.82;;;3.17;;
21352;SDS011;10834;52.268;6.770;2023-07-16T12:03:43;5.60;;;3.33;;
21352;SDS011;10834;52.268;6.770;2023-07-16T12:06:29;7.88;;;3.60;;
21352;SDS011;10834;52.268;6.770;2023-07-16T12:09:15;5.32;;;4.00;;
21352;SDS011;10834;52.268;6.770;2023-07-16T12:12:01;6.10;;;3.15;;
21352;SDS011;10834;52.268;6.770;2023-07-16T12:14:48;7.13;;;3.45;;
21352;SDS011;10834;52.268;6.770;2023-07-16T12:17:34;3.60;;;2.78;;
21352;SDS011;10834;52.268;6.770;2023-07-16T12:20:20;6.63;;;3.42;;
21352;SDS011;10834;52.268;6.770;2023-07-16T12:23:06;5.07;;;3.53;;
21352;SDS011;10834;52.268;6.770;2023-07-16T12:25:52;7.60;;;3.38;;
21352;SDS011;10834;52.268;6.770;2023-07-16T12:28:38;3.92;;;3.10;;
21352;SDS011;10834;52.268;6.770;2023-07-16T12:31:24;5.65;;;3.42;;
21352;SDS011;10834;52.268;6.770;2023-07-16T12:34:10;6.05;;;3.38;;
21352;SDS011;10834;52.268;6.770;2023-07-16T12:36:56;4.00;;;3.22;;
21352;SDS011;10834;52.268;6.770;2023-07-16T12:39:42;4.00;;;2.83;;
21352;SDS011;10834;52.268;6.770;2023-07-16T12:42:28;4.05;;;3.28;;
21352;SDS011;10834;52.268;6.770;2023-07-16T12:45:14;3.05;;;2.65;;
21352;SDS011;10834;52.268;6.770;2023-07-16T12:48:01;4.60;;;2.53;;
21352;SDS011;10834;52.268;6.770;2023-07-16T12:50:47;6.72;;;3.53;;
21352;SDS011;10834;52.268;6.770;2023-07-16T12:53:33;4.72;;;3.30;;
21352;SDS011;10834;52.268;6.770;2023-07-16T12:56:19;5.57;;;3.03;;
21352;SDS011;10834;52.268;6.770;2023-07-16T12:59:05;5.72;;;2.85;;
21352;SDS011;10834;52.268;6.770;2023-07-16T13:01:51;7.60;;;3.10;;
21352;SDS011;10834;52.268;6.770;2023-07-16T13:04:37;7.82;;;3.38;;
21352;SDS011;10834;52.268;6.770;2023-07-16T13:07:23;7.22;;;3.20;;
21352;SDS011;10834;52.268;6.770;2023-07-16T13:10:09;5.55;;;2.92;;
21352;SDS011;10834;52.268;6.770;2023-07-16T13:12:56;5.75;;;3.20;;
21352;SDS011;10834;52.268;6.770;2023-07-16T13:15:42;4.82;;;2.63;;
21352;SDS011;10834;52.268;6.770;2023-07-16T13:18:28;4.40;;;3.05;;
21352;SDS011;10834;52.268;6.770;2023-07-16T13:21:14;9.40;;;3.63;;
21352;SDS011;10834;52.268;6.770;2023-07-16T13:24:00;4.50;;;3.03;;
21352;SDS011;10834;52.268;6.770;2023-07-16T13:26:46;5.38;;;3.47;;
21352;SDS011;10834;52.268;6.770;2023-07-16T13:29:32;6.93;;;3.53;;
21352;SDS011;10834;52.268;6.770;2023-07-16T13:32:18;6.05;;;3.50;;
21352;SDS011;10834;52.268;6.770;2023-07-16T13:35:04;4.30;;;2.97;;
21352;SDS011;10834;52.268;6.770;2023-07-16T13:37:51;4.80;;;3.20;;
21352;SDS011;10834;52.268;6.770;2023-07-16T13:40:37;5.07;;;3.90;;
21352;SDS011;10834;52.268;6.770;2023-07-16T13:43:23;4.03;;;3.20;;
21352;SDS011;10834;52.268;6.770;2023-07-16T13:46:09;4.32;;;3.17;;
21352;SDS011;10834;52.268;6.770;2023-07-16T13:48:55;8.00;;;4.15;;
21352;SDS011;10834;52.268;6.770;2023-07-16T13:51:42;4.03;;;3.30;;
21352;SDS011;10834;52.268;6.770;2023-07-16T13:54:28;5.80;;;3.47;;
21352;SDS011;10834;52.268;6.770;2023-07-16T13:57:14;6.10;;;3.50;;
21352;SDS011;10834;52.268;6.770;2023-07-16T14:00:00;5.63;;;3.60;;
21352;SDS011;10834;52.268;6.770;2023-07-16T14:02:47;5.18;;;3.90;;
21352;SDS011;10834;52.268;6.770;2023-07-16T14:05:33;5.80;;;3.33;;
21352;SDS011;10834;52.268;6.770;2023-07-16T14:08:24;4.63;;;3.47;;
21352;SDS011;10834;52.268;6.770;2023-07-16T14:11:10;6.80;;;3.40;;
21352;SDS011;10834;52.268;6.770;2023-07-16T14:13:56;5.18;;;3.53;;
21352;SDS011;10834;52.268;6.770;2023-07-16T14:16:42;5.63;;;3.80;;
21352;SDS011;10834;52.268;6.770;2023-07-16T14:19:28;5.22;;;3.22;;
21352;SDS011;10834;52.268;6.770;2023-07-16T14:22:15;4.88;;;3.83;;
21352;SDS011;10834;52.268;6.770;2023-07-16T14:25:01;4.28;;;3.55;;
21352;SDS011;10834;52.268;6.770;2023-07-16T14:27:48;6.03;;;3.80;;
21352;SDS011;10834;52.268;6.770;2023-07-16T14:30:34;5.00;;;3.40;;
21352;SDS011;10834;52.268;6.770;2023-07-16T14:33:20;4.65;;;3.45;;
21352;SDS011;10834;52.268;6.770;2023-07-16T14:36:06;5.22;;;3.58;;
21352;SDS011;10834;52.268;6.770;2023-07-16T14:38:53;6.93;;;3.78;;
21352;SDS011;10834;52.268;6.770;2023-07-16T14:41:39;6.85;;;3.13;;
21352;SDS011;10834;52.268;6.770;2023-07-16T14:44:25;4.65;;;3.00;;
21352;SDS011;10834;52.268;6.770;2023-07-16T14:47:11;4.80;;;3.63;;
21352;SDS011;10834;52.268;6.770;2023-07-16T14:49:57;4.80;;;3.47;;
21352;SDS011;10834;52.268;6.770;2023-07-16T14:52:43;4.57;;;3.40;;
21352;SDS011;10834;52.268;6.770;2023-07-16T14:55:29;6.90;;;4.43;;
21352;SDS011;10834;52.268;6.770;2023-07-16T14:58:17;4.38;;;3.38;;
21352;SDS011;10834;52.268;6.770;2023-07-16T15:01:04;6.70;;;4.22;;
21352;SDS011;10834;52.268;6.770;2023-07-16T15:03:53;4.90;;;3.10;;
21352;SDS011;10834;52.268;6.770;2023-07-16T15:06:39;5.75;;;3.33;;
21352;SDS011;10834;52.268;6.770;2023-07-16T15:09:25;6.03;;;4.43;;
21352;SDS011;10834;52.268;6.770;2023-07-16T15:12:11;6.57;;;3.40;;
21352;SDS011;10834;52.268;6.770;2023-07-16T15:14:57;8.80;;;3.70;;
21352;SDS011;10834;52.268;6.770;2023-07-16T15:17:43;4.18;;;3.15;;
21352;SDS011;10834;52.268;6.770;2023-07-16T15:20:29;3.83;;;3.03;;
21352;SDS011;10834;52.268;6.770;2023-07-16T15:23:15;4.22;;;3.72;;
21352;SDS011;10834;52.268;6.770;2023-07-16T15:26:02;6.55;;;4.13;;
21352;SDS011;10834;52.268;6.770;2023-07-16T15:28:50;7.45;;;3.90;;
21352;SDS011;10834;52.268;6.770;2023-07-16T15:31:37;6.85;;;3.65;;
21352;SDS011;10834;52.268;6.770;2023-07-16T15:34:23;3.75;;;2.90;;
21352;SDS011;10834;52.268;6.770;2023-07-16T15:37:09;6.00;;;2.95;;
21352;SDS011;10834;52.268;6.770;2023-07-16T15:39:55;3.53;;;2.53;;
21352;SDS011;10834;52.268;6.770;2023-07-16T15:42:43;2.83;;;2.63;;
21352;SDS011;10834;52.268;6.770;2023-07-16T15:45:29;3.38;;;2.25;;
21352;SDS011;10834;52.268;6.770;2023-07-16T15:48:15;3.60;;;3.15;;
21352;SDS011;10834;52.268;6.770;2023-07-16T15:51:02;4.20;;;2.38;;
21352;SDS011;10834;52.268;6.770;2023-07-16T15:53:51;5.22;;;2.63;;
21352;SDS011;10834;52.268;6.770;2023-07-16T15:56:38;3.63;;;2.30;;
21352;SDS011;10834;52.268;6.770;2023-07-16T15:59:24;3.72;;;2.90;;
21352;SDS011;10834;52.268;6.770;2023-07-16T16:02:11;4.93;;;2.85;;
21352;SDS011;10834;52.268;6.770;2023-07-16T16:04:57;4.28;;;2.78;;
21352;SDS011;10834;52.268;6.770;2023-07-16T16:07:49;3.90;;;2.30;;
21352;SDS011;10834;52.268;6.770;2023-07-16T16:10:55;4.03;;;1.92;;
21352;SDS011;10834;52.268;6.770;2023-07-16T16:13:42;3.75;;;2.17;;
21352;SDS011;10834;52.268;6.770;2023-07-16T16:16:28;3.05;;;2.58;;
21352;SDS011;10834;52.268;6.770;2023-07-16T16:19:18;3.78;;;2.35;;
21352;SDS011;10834;52.268;6.770;2023-07-16T16:22:04;4.63;;;2.20;;
21352;SDS011;10834;52.268;6.770;2023-07-16T16:24:51;3.40;;;2.38;;
21352;SDS011;10834;52.268;6.770;2023-07-16T16:27:37;6.57;;;2.30;;
21352;SDS011;10834;52.268;6.770;2023-07-16T16:30:23;4.45;;;2.38;;
21352;SDS011;10834;52.268;6.770;2023-07-16T16:33:10;3.85;;;2.22;;
21352;SDS011;10834;52.268;6.770;2023-07-16T16:35:56;3.35;;;2.35;;
21352;SDS011;10834;52.268;6.770;2023-07-16T16:38:42;5.63;;;2.17;;
21352;SDS011;10834;52.268;6.770;2023-07-16T16:41:28;2.75;;;2.20;;
21352;SDS011;10834;52.268;6.770;2023-07-16T16:44:14;3.25;;;2.22;;
21352;SDS011;10834;52.268;6.770;2023-07-16T16:47:00;2.25;;;1.92;;
21352;SDS011;10834;52.268;6.770;2023-07-16T16:49:46;2.97;;;2.25;;
21352;SDS011;10834;52.268;6.770;2023-07-16T16:52:32;3.58;;;2.40;;
21352;SDS011;10834;52.268;6.770;2023-07-16T16:55:19;4.43;;;2.22;;
21352;SDS011;10834;52.268;6.770;2023-07-16T16:58:05;5.95;;;2.28;;